Time;durP1;ratioP1;P1;durP2;ratioP2;P2;SDS_P1;SDS_P2;PMS_P1;PMS_P2;Temp;Humidity;BMP_temperature;BMP_pressure;BME280_temperature;BME280_humidity;BME280_pressure;Samples;Min_cycle;Max_cycle;Signal;HPM_P1;HPM_P2
2023/06/01 00:01:13;;;;;;;;;;;11.50;99.90;;;;;;8322012;28;20437;-80
2023/06/01 00:05:13;;;;;;;;;;;11.10;99.90;;;;;;8349288;28;19912;-80
2023/06/01 00:09:14;;;;;;;;;;;10.90;99.90;;;;;;8334321;28;19912;-80
2023/06/01 00:13:14;;;;;;;;;;;10.50;99.90;;;;;;8311308;28;19914;-80
2023/06/01 00:17:16;;;;;;;;;;;10.20;99.90;;;;;;8340484;28;19919;-80
2023/06/01 00:21:16;;;;;;;;;;;10.10;99.90;;;;;;8331468;28;20388;-80
2023/06/01 00:25:16;;;;;;;;;;;10.00;99.90;;;;;;8340612;28;19939;-80
2023/06/01 00:29:17;;;;;;;;;;;9.90;99.90;;;;;;8350676;28;19951;-80
2023/06/01 00:33:17;;;;;;;;;;;9.70;99.90;;;;;;8323941;28;19913;-79
2023/06/01 00:37:18;;;;;;;;;;;9.60;99.90;;;;;;8336709;28;19909;-78
2023/06/01 00:41:18;;;;;;;;;;;9.50;99.90;;;;;;8323500;28;20401;-79
2023/06/01 00:45:19;;;;;;;;;;;9.40;99.90;;;;;;8326878;28;20374;-80
2023/06/01 00:49:19;;;;;;;;;;;9.40;99.90;;;;;;8335068;28;19917;-80
2023/06/01 00:53:20;;;;;;;;;;;9.50;99.90;;;;;;8327569;28;20281;-80
2023/06/01 00:57:21;;;;;;;;;;;9.50;99.90;;;;;;8338864;28;19919;-80
2023/06/01 01:01:22;;;;;;;;;;;9.30;99.90;;;;;;8337216;28;20373;-80
2023/06/01 01:05:26;;;;;;;;;;;9.30;99.90;;;;;;8323298;28;19917;-80
2023/06/01 01:09:40;;;;;;;;;;;9.60;99.90;;;;;;8325538;28;20009;-80
2023/06/01 01:13:43;;;;;;;;;;;9.70;99.90;;;;;;8318919;28;20304;-79
2023/06/01 01:17:45;;;;;;;;;;;9.50;99.90;;;;;;8328980;28;20058;-81
2023/06/01 01:21:50;;;;;;;;;;;9.30;99.90;;;;;;8344488;28;19913;-80
2023/06/01 01:26:07;;;;;;;;;;;9.10;99.90;;;;;;8324726;28;19916;-80
2023/06/01 01:30:08;;;;;;;;;;;9.00;99.90;;;;;;8323596;28;20393;-81
2023/06/01 01:34:09;;;;;;;;;;;8.90;99.90;;;;;;8338488;28;19914;-78
2023/06/01 01:38:10;;;;;;;;;;;8.80;99.90;;;;;;8320825;28;19969;-80
2023/06/01 01:42:10;;;;;;;;;;;8.80;99.90;;;;;;8328918;28;19968;-79
2023/06/01 01:46:26;;;;;;;;;;;8.60;99.90;;;;;;8326754;28;19913;-80
2023/06/01 01:50:29;;;;;;;;;;;8.50;99.90;;;;;;8328364;28;20350;-80
2023/06/01 01:54:31;;;;;;;;;;;8.30;99.90;;;;;;8328408;28;19917;-80
2023/06/01 01:58:32;;;;;;;;;;;8.10;99.90;;;;;;8333301;28;19909;-80
2023/06/01 02:02:33;;;;;;;;;;;8.30;99.90;;;;;;8331621;28;19924;-80
2023/06/01 02:06:33;;;;;;;;;;;8.40;99.90;;;;;;8359003;28;19909;-80
2023/06/01 02:10:34;;;;;;;;;;;8.40;99.90;;;;;;8360835;28;19909;-80
2023/06/01 02:14:34;;;;;;;;;;;8.20;99.90;;;;;;8339984;28;19909;-79
2023/06/01 02:18:38;;;;;;;;;;;8.20;99.90;;;;;;8323491;28;19967;-80
2023/06/01 02:22:39;;;;;;;;;;;8.30;99.90;;;;;;8332441;28;19913;-79
2023/06/01 02:26:40;;;;;;;;;;;8.70;99.90;;;;;;8334637;28;20365;-79
2023/06/01 02:30:40;;;;;;;;;;;8.60;99.90;;;;;;8327938;28;19913;-78
2023/06/01 02:34:40;;;;;;;;;;;8.40;99.90;;;;;;8340784;28;20521;-80
2023/06/01 02:38:41;;;;;;;;;;;8.30;99.90;;;;;;8325943;28;20039;-80
2023/06/01 02:42:41;;;;;;;;;;;8.10;99.90;;;;;;8329939;28;19917;-81
2023/06/01 02:46:42;;;;;;;;;;;8.00;99.90;;;;;;8347164;28;19916;-81
2023/06/01 02:50:42;;;;;;;;;;;8.00;99.90;;;;;;8344202;28;20300;-79
2023/06/01 02:54:43;;;;;;;;;;;7.90;99.90;;;;;;8342849;28;20520;-80
2023/06/01 02:58:43;;;;;;;;;;;7.80;99.90;;;;;;8342516;28;19943;-80
2023/06/01 03:02:44;;;;;;;;;;;7.70;99.90;;;;;;8349957;28;19917;-79
2023/06/01 03:06:45;;;;;;;;;;;7.60;99.90;;;;;;8357492;28;19917;-80
2023/06/01 03:10:45;;;;;;;;;;;7.60;99.90;;;;;;8329199;28;19912;-80
2023/06/01 03:14:46;;;;;;;;;;;7.50;99.90;;;;;;8335908;28;19917;-81
2023/06/01 03:18:46;;;;;;;;;;;7.60;99.90;;;;;;8327334;28;19923;-80
2023/06/01 03:22:47;;;;;;;;;;;7.60;99.90;;;;;;8357834;28;19908;-80
2023/06/01 03:26:47;;;;;;;;;;;7.60;99.90;;;;;;8327327;28;19917;-80
2023/06/01 03:30:48;;;;;;;;;;;7.50;99.90;;;;;;8317076;28;19909;-80
2023/06/01 03:34:48;;;;;;;;;;;7.50;99.90;;;;;;8342929;28;20424;-80
2023/06/01 03:38:49;;;;;;;;;;;7.40;99.90;;;;;;8308858;28;19924;-80
2023/06/01 03:42:49;;;;;;;;;;;7.30;99.90;;;;;;8328253;28;19920;-80
2023/06/01 03:46:50;;;;;;;;;;;7.40;99.90;;;;;;8328871;28;20373;-80
2023/06/01 03:50:51;;;;;;;;;;;7.50;99.90;;;;;;8333448;28;19921;-80
2023/06/01 03:54:51;;;;;;;;;;;7.80;99.90;;;;;;8340064;28;19908;-80
2023/06/01 03:58:52;;;;;;;;;;;8.20;99.90;;;;;;8341030;28;19924;-80
2023/06/01 04:02:57;;;;;;;;;;;8.50;99.90;;;;;;8325248;28;19930;-80
2023/06/01 04:07:00;;;;;;;;;;;8.80;99.90;;;;;;8333497;28;19913;-80
2023/06/01 04:11:01;;;;;;;;;;;9.10;99.90;;;;;;8351611;28;20028;-80
2023/06/01 04:15:01;;;;;;;;;;;9.70;99.90;;;;;;8334859;28;19960;-80
2023/06/01 04:19:02;;;;;;;;;;;10.20;99.90;;;;;;8321652;28;19917;-80
2023/06/01 04:23:02;;;;;;;;;;;10.70;99.90;;;;;;8326106;28;19913;-80
2023/06/01 04:27:04;;;;;;;;;;;11.60;99.90;;;;;;8339730;28;19909;-80
2023/06/01 04:31:05;;;;;;;;;;;12.10;99.90;;;;;;8329154;28;19924;-80
2023/06/01 04:35:06;;;;;;;;;;;12.60;99.90;;;;;;8311344;28;19917;-83
2023/06/01 04:39:07;;;;;;;;;;;12.90;99.90;;;;;;8305007;28;19917;-83
2023/06/01 04:43:07;;;;;;;;;;;13.20;99.90;;;;;;8323053;28;20020;-83
2023/06/01 04:47:08;;;;;;;;;;;13.70;99.90;;;;;;8335172;28;19975;-83
2023/06/01 04:51:09;;;;;;;;;;;14.80;99.90;;;;;;8339692;28;19909;-83
2023/06/01 04:55:12;;;;;;;;;;;15.00;99.90;;;;;;8347707;28;19913;-84
2023/06/01 04:59:13;;;;;;;;;;;16.00;99.90;;;;;;8368215;28;19923;-82
2023/06/01 05:03:13;;;;;;;;;;;15.50;99.90;;;;;;8361327;28;19920;-84
2023/06/01 05:07:14;;;;;;;;;;;15.70;99.90;;;;;;8350570;28;19916;-81
2023/06/01 05:11:14;;;;;;;;;;;16.00;99.90;;;;;;8340031;28;19909;-83
2023/06/01 05:15:16;;;;;;;;;;;16.20;99.90;;;;;;8338234;28;19947;-83
2023/06/01 05:19:16;;;;;;;;;;;16.80;99.90;;;;;;8343331;28;19912;-82
2023/06/01 05:23:17;;;;;;;;;;;17.30;99.90;;;;;;8319129;28;19974;-83
2023/06/01 05:27:17;;;;;;;;;;;17.10;99.90;;;;;;8356820;28;19919;-82
2023/06/01 05:31:19;;;;;;;;;;;17.90;99.90;;;;;;8330084;28;19936;-83
2023/06/01 05:35:20;;;;;;;;;;;18.50;99.90;;;;;;8365751;28;19909;-83
2023/06/01 05:39:21;;;;;;;;;;;18.50;99.90;;;;;;8350243;28;19931;-84
2023/06/01 05:43:22;;;;;;;;;;;18.30;99.90;;;;;;8335649;28;19921;-84
2023/06/01 05:47:22;;;;;;;;;;;19.40;99.90;;;;;;8359155;28;19915;-84
2023/06/01 05:51:23;;;;;;;;;;;20.00;99.90;;;;;;8351757;28;20423;-87
2023/06/01 05:55:23;;;;;;;;;;;20.00;99.90;;;;;;8352326;28;19916;-87
2023/06/01 05:59:24;;;;;;;;;;;20.10;99.90;;;;;;8341825;28;19936;-86
2023/06/01 06:03:25;;;;;;;;;;;20.50;99.90;;;;;;8337239;28;19913;-86
2023/06/01 06:07:25;;;;;;;;;;;21.30;99.90;;;;;;8340810;28;19909;-87
2023/06/01 06:11:26;;;;;;;;;;;22.00;99.90;;;;;;8326102;28;19954;-88
2023/06/01 06:15:26;;;;;;;;;;;22.30;99.90;;;;;;8337234;28;19909;-87
2023/06/01 06:19:27;;;;;;;;;;;22.20;99.90;;;;;;8340337;28;20389;-87
2023/06/01 06:23:30;;;;;;;;;;;22.10;99.90;;;;;;8359941;28;19920;-87
2023/06/01 06:27:30;;;;;;;;;;;22.40;99.90;;;;;;8358613;28;20369;-81
2023/06/01 06:31:30;;;;;;;;;;;22.50;99.90;;;;;;8343019;28;19919;-81
2023/06/01 06:35:31;;;;;;;;;;;22.80;99.90;;;;;;8343838;28;19958;-80
2023/06/01 06:39:32;;;;;;;;;;;23.10;99.90;;;;;;8342236;28;19913;-79
2023/06/01 06:43:32;;;;;;;;;;;23.70;99.90;;;;;;8305934;28;19921;-79
2023/06/01 06:47:33;;;;;;;;;;;24.40;98.90;;;;;;8306195;28;19920;-80
2023/06/01 06:51:33;;;;;;;;;;;24.60;98.30;;;;;;8321079;28;19949;-79
2023/06/01 06:55:34;;;;;;;;;;;24.90;96.60;;;;;;8332674;28;20274;-80
2023/06/01 06:59:35;;;;;;;;;;;24.60;96.10;;;;;;8343708;28;19916;-81
2023/06/01 07:03:35;;;;;;;;;;;24.30;96.90;;;;;;8328074;28;19909;-81
2023/06/01 07:07:36;;;;;;;;;;;24.50;95.50;;;;;;8341445;28;19909;-79
2023/06/01 07:11:36;;;;;;;;;;;24.70;97.40;;;;;;8339851;28;19920;-81
2023/06/01 07:15:37;;;;;;;;;;;24.90;96.20;;;;;;8334775;28;20300;-78
2023/06/01 07:19:37;;;;;;;;;;;24.70;94.00;;;;;;8315967;28;19923;-79
2023/06/01 07:23:41;;;;;;;;;;;24.80;95.80;;;;;;8332879;28;19923;-78
2023/06/01 07:27:43;;;;;;;;;;;24.30;95.90;;;;;;8324730;28;19909;-80
2023/06/01 07:31:43;;;;;;;;;;;23.60;95.20;;;;;;8329804;28;19921;-80
2023/06/01 07:35:43;;;;;;;;;;;23.40;98.40;;;;;;8327630;28;19912;-80
2023/06/01 07:39:44;;;;;;;;;;;23.60;96.80;;;;;;8338330;28;20373;-80
2023/06/01 07:43:46;;;;;;;;;;;24.50;95.40;;;;;;8356261;28;21249;-81
2023/06/01 07:47:47;;;;;;;;;;;24.80;95.00;;;;;;8305479;28;20484;-81
2023/06/01 07:51:48;;;;;;;;;;;24.70;95.80;;;;;;8307221;28;19909;-79
2023/06/01 07:55:50;;;;;;;;;;;24.40;95.50;;;;;;8310049;28;19959;-85
2023/06/01 07:59:50;;;;;;;;;;;24.30;96.70;;;;;;8324397;28;19963;-85
2023/06/01 08:03:51;;;;;;;;;;;24.40;97.10;;;;;;8317751;28;19913;-84
2023/06/01 08:07:52;;;;;;;;;;;24.50;97.90;;;;;;8338574;28;19908;-86
2023/06/01 08:11:53;;;;;;;;;;;24.30;94.00;;;;;;8338716;28;19909;-85
2023/06/01 08:15:54;;;;;;;;;;;23.90;95.00;;;;;;8334273;28;19952;-85
2023/06/01 08:19:56;;;;;;;;;;;24.00;96.30;;;;;;8347091;28;20233;-85
2023/06/01 08:23:57;;;;;;;;;;;24.50;97.70;;;;;;8346320;28;20353;-84
2023/06/01 08:27:57;;;;;;;;;;;24.50;97.50;;;;;;8348150;28;19955;-86
2023/06/01 08:31:59;;;;;;;;;;;24.40;95.10;;;;;;8366927;28;19940;-85
2023/06/01 08:36:00;;;;;;;;;;;24.20;94.70;;;;;;8350800;28;19916;-85
2023/06/01 08:40:00;;;;;;;;;;;24.40;94.50;;;;;;8352634;28;19976;-85
2023/06/01 08:44:06;;;;;;;;;;;24.70;95.10;;;;;;8344053;28;19948;-85
2023/06/01 08:48:08;;;;;;;;;;;24.60;97.20;;;;;;8335963;28;19908;-84
2023/06/01 08:52:11;;;;;;;;;;;24.30;94.80;;;;;;8333794;28;20424;-85
2023/06/01 08:56:12;;;;;;;;;;;24.40;95.10;;;;;;8327720;28;19917;-79
2023/06/01 09:00:13;;;;;;;;;;;24.10;94.30;;;;;;8346474;28;19920;-79
2023/06/01 09:04:14;;;;;;;;;;;24.20;95.40;;;;;;8340000;28;19980;-80
2023/06/01 09:08:15;;;;;;;;;;;24.50;96.40;;;;;;8339902;28;19909;-80
2023/06/01 09:12:17;;;;;;;;;;;24.50;95.70;;;;;;8326925;28;19913;-79
2023/06/01 09:16:18;;;;;;;;;;;25.30;94.60;;;;;;8339569;28;20329;-80
2023/06/01 09:20:25;;;;;;;;;;;24.80;93.20;;;;;;8350471;28;19913;-81
2023/06/01 09:24:26;;;;;;;;;;;24.80;93.40;;;;;;8346614;28;19912;-81
2023/06/01 09:28:26;;;;;;;;;;;25.10;93.90;;;;;;8341884;28;19909;-81
2023/06/01 09:32:27;;;;;;;;;;;25.40;93.70;;;;;;8347020;28;19916;-80
2023/06/01 09:36:27;;;;;;;;;;;25.30;94.00;;;;;;8339933;28;19943;-81
2023/06/01 09:40:28;;;;;;;;;;;25.80;95.00;;;;;;8324792;28;19944;-83
2023/06/01 09:44:28;;;;;;;;;;;25.70;92.30;;;;;;8330745;28;19924;-84
2023/06/01 09:48:29;;;;;;;;;;;24.90;93.70;;;;;;8320207;28;19908;-84
2023/06/01 09:52:30;;;;;;;;;;;25.20;93.10;;;;;;8320899;28;19966;-82
2023/06/01 09:56:48;;;;;;;;;;;25.60;91.70;;;;;;8324141;28;19924;-83
2023/06/01 10:00:49;;;;;;;;;;;25.10;93.10;;;;;;8318457;28;19917;-82
2023/06/01 10:04:51;;;;;;;;;;;25.80;92.90;;;;;;8309267;28;19916;-83
2023/06/01 10:08:52;;;;;;;;;;;25.70;92.30;;;;;;8305660;28;20385;-83
2023/06/01 10:12:52;;;;;;;;;;;25.50;92.80;;;;;;8344052;28;19948;-81
2023/06/01 10:16:53;;;;;;;;;;;25.40;90.30;;;;;;8325887;28;19972;-83
2023/06/01 10:20:55;;;;;;;;;;;25.30;88.90;;;;;;8334659;28;20525;-81
2023/06/01 10:24:58;;;;;;;;;;;25.30;93.40;;;;;;8321564;28;20337;-81
2023/06/01 10:29:00;;;;;;;;;;;25.20;93.00;;;;;;8355247;28;19920;-83
2023/06/01 10:33:01;;;;;;;;;;;25.40;93.10;;;;;;8341929;28;19917;-83
2023/06/01 10:37:01;;;;;;;;;;;26.70;91.30;;;;;;8350841;28;19932;-80
2023/06/01 10:41:22;;;;;;;;;;;27.70;87.40;;;;;;8304242;28;20396;-81
2023/06/01 10:45:41;;;;;;;;;;;28.00;86.30;;;;;;8344079;28;19913;-81
2023/06/01 10:49:50;;;;;;;;;;;28.70;79.30;;;;;;8333240;28;19952;-81
2023/06/01 10:53:52;;;;;;;;;;;28.70;79.10;;;;;;8340106;28;19975;-82
2023/06/01 10:58:11;;;;;;;;;;;29.50;81.10;;;;;;8328713;28;20097;-81
2023/06/01 11:02:12;;;;;;;;;;;28.70;74.10;;;;;;8334188;28;19923;-81
2023/06/01 11:06:33;;;;;;;;;;;28.00;75.70;;;;;;8306767;28;20674;-82
2023/06/01 11:10:52;;;;;;;;;;;27.80;76.50;;;;;;8332412;28;19915;-80
2023/06/01 11:15:11;;;;;;;;;;;29.10;79.60;;;;;;8351029;28;19909;-80
2023/06/01 11:19:17;;;;;;;;;;;29.00;72.20;;;;;;8337575;28;19913;-81
2023/06/01 11:23:18;;;;;;;;;;;28.60;73.00;;;;;;8324482;28;19921;-82
2023/06/01 11:27:18;;;;;;;;;;;29.70;70.70;;;;;;8318707;28;19917;-83
2023/06/01 11:31:19;;;;;;;;;;;30.00;70.30;;;;;;8330001;28;19988;-79
2023/06/01 11:35:21;;;;;;;;;;;29.60;71.20;;;;;;8345614;28;19913;-81
2023/06/01 11:39:23;;;;;;;;;;;29.40;70.10;;;;;;8334072;28;20094;-81
2023/06/01 11:43:41;;;;;;;;;;;29.80;72.70;;;;;;8350988;28;19956;-82
2023/06/01 11:47:43;;;;;;;;;;;30.20;69.50;;;;;;8315076;28;19939;-81
2023/06/01 11:51:44;;;;;;;;;;;29.30;69.80;;;;;;8315898;28;19938;-83
2023/06/01 11:55:51;;;;;;;;;;;29.80;69.80;;;;;;8351212;28;19909;-82
2023/06/01 11:59:52;;;;;;;;;;;29.40;71.30;;;;;;8327476;28;19917;-81
2023/06/01 12:03:54;;;;;;;;;;;29.10;70.50;;;;;;8335981;28;20392;-82
2023/06/01 12:07:55;;;;;;;;;;;29.90;67.40;;;;;;8326207;28;19959;-81
2023/06/01 12:11:55;;;;;;;;;;;29.20;66.00;;;;;;8342344;28;19913;-81
2023/06/01 12:15:56;;;;;;;;;;;28.80;70.60;;;;;;8325671;28;19909;-80
2023/06/01 12:19:56;;;;;;;;;;;29.20;70.50;;;;;;8331800;28;19928;-81
2023/06/01 12:23:57;;;;;;;;;;;31.50;67.30;;;;;;8330336;28;20437;-80
2023/06/01 12:28:00;;;;;;;;;;;33.00;63.20;;;;;;8321698;28;19916;-80
2023/06/01 12:32:00;;;;;;;;;;;32.20;58.30;;;;;;8354056;28;19955;-81
2023/06/01 12:36:04;;;;;;;;;;;33.30;58.60;;;;;;8322627;28;19921;-83
2023/06/01 12:44:05;;;;;;;;;;;31.50;60.00;;;;;;8334235;22;19929;-82
2023/06/01 12:48:06;;;;;;;;;;;31.30;61.30;;;;;;8315152;28;20326;-81
2023/06/01 12:52:06;;;;;;;;;;;29.20;64.60;;;;;;8312447;28;20366;-83
2023/06/01 12:56:07;;;;;;;;;;;27.40;67.00;;;;;;8305860;28;19964;-82
2023/06/01 13:00:08;;;;;;;;;;;29.30;66.50;;;;;;8304539;28;19972;-83
2023/06/01 13:04:08;;;;;;;;;;;30.50;59.10;;;;;;8298555;28;19944;-83
2023/06/01 13:08:12;;;;;;;;;;;33.30;57.10;;;;;;8279968;28;19913;-85
2023/06/01 13:12:13;;;;;;;;;;;35.70;55.50;;;;;;8292909;28;19914;-84
2023/06/01 13:16:14;;;;;;;;;;;36.20;49.60;;;;;;8310774;28;19914;-82
2023/06/01 13:20:16;;;;;;;;;;;35.70;49.50;;;;;;8298538;28;19968;-83
2023/06/01 13:24:17;;;;;;;;;;;32.50;54.00;;;;;;8293812;28;19922;-83
2023/06/01 13:28:19;;;;;;;;;;;28.80;60.50;;;;;;8300833;28;19913;-84
2023/06/01 13:32:19;;;;;;;;;;;27.40;69.20;;;;;;8324288;28;19918;-82
2023/06/01 13:36:20;;;;;;;;;;;30.40;60.00;;;;;;8309004;28;19913;-82
2023/06/01 13:40:24;;;;;;;;;;;32.60;56.50;;;;;;8306938;28;19927;-81
2023/06/01 13:44:24;;;;;;;;;;;33.00;56.20;;;;;;8312170;28;20402;-81
2023/06/01 13:48:25;;;;;;;;;;;30.70;57.20;;;;;;8315511;28;19909;-82
2023/06/01 13:52:26;;;;;;;;;;;29.20;60.70;;;;;;8316248;28;19928;-80
2023/06/01 13:56:27;;;;;;;;;;;28.80;59.90;;;;;;8305610;28;19913;-81
2023/06/01 14:00:28;;;;;;;;;;;29.30;63.40;;;;;;8311408;28;20625;-81
2023/06/01 14:04:29;;;;;;;;;;;32.40;61.50;;;;;;8290466;28;19925;-81
2023/06/01 14:08:30;;;;;;;;;;;34.90;51.50;;;;;;8316497;28;19913;-81
2023/06/01 14:12:30;;;;;;;;;;;33.70;52.20;;;;;;8303490;28;20366;-80
2023/06/01 14:16:31;;;;;;;;;;;30.40;59.00;;;;;;8308278;28;19925;-80
2023/06/01 14:20:32;;;;;;;;;;;27.60;62.30;;;;;;8304147;28;19925;-80
2023/06/01 14:24:33;;;;;;;;;;;26.80;75.70;;;;;;8285923;28;19960;-80
2023/06/01 14:28:33;;;;;;;;;;;30.10;60.90;;;;;;8296212;28;19935;-82
2023/06/01 14:32:34;;;;;;;;;;;34.30;56.70;;;;;;8313103;28;19909;-80
2023/06/01 14:36:36;;;;;;;;;;;34.40;49.40;;;;;;8303200;28;20305;-81
2023/06/01 14:40:36;;;;;;;;;;;34.50;51.60;;;;;;8302089;28;19925;-80
2023/06/01 14:44:37;;;;;;;;;;;35.20;48.40;;;;;;8310765;28;19913;-80
2023/06/01 14:48:37;;;;;;;;;;;35.60;48.30;;;;;;8311368;28;19916;-80
2023/06/01 14:52:38;;;;;;;;;;;34.80;49.00;;;;;;8309351;28;19913;-80
2023/06/01 14:56:38;;;;;;;;;;;33.40;50.40;;;;;;8298490;28;19917;-80
2023/06/01 15:00:39;;;;;;;;;;;35.60;51.40;;;;;;8298076;28;19917;-80
2023/06/01 15:04:39;;;;;;;;;;;34.90;47.90;;;;;;8302774;28;19917;-79
2023/06/01 15:08:40;;;;;;;;;;;33.30;50.50;;;;;;8307542;28;19999;-81
2023/06/01 15:12:40;;;;;;;;;;;32.90;50.90;;;;;;8281362;28;19913;-79
2023/06/01 15:16:42;;;;;;;;;;;32.50;52.80;;;;;;8283669;28;19967;-81
2023/06/01 15:20:43;;;;;;;;;;;32.70;49.40;;;;;;8300235;28;19996;-79
2023/06/01 15:24:43;;;;;;;;;;;32.20;49.50;;;;;;8292283;28;20513;-81
2023/06/01 15:28:44;;;;;;;;;;;32.50;49.50;;;;;;8310275;28;19920;-79
2023/06/01 15:32:44;;;;;;;;;;;31.70;51.10;;;;;;8291421;28;19914;-80
2023/06/01 15:36:45;;;;;;;;;;;30.40;51.40;;;;;;8286075;28;19949;-80
2023/06/01 15:40:48;;;;;;;;;;;30.20;52.30;;;;;;8284454;28;20310;-80
2023/06/01 15:44:49;;;;;;;;;;;29.30;52.90;;;;;;8285995;28;19921;-81
2023/06/01 15:48:49;;;;;;;;;;;27.60;56.90;;;;;;8285291;28;19914;-81
2023/06/01 15:52:50;;;;;;;;;;;26.60;59.80;;;;;;8289135;28;19909;-79
2023/06/01 15:56:53;;;;;;;;;;;26.40;56.50;;;;;;8282866;28;19940;-80
2023/06/01 16:04:59;;;;;;;;;;;26.20;56.10;;;;;;8366842;28;20032;-79
2023/06/01 16:09:00;;;;;;;;;;;25.80;56.80;;;;;;8367284;28;19912;-79
2023/06/01 16:13:00;;;;;;;;;;;25.70;58.40;;;;;;8355639;28;20365;-79
2023/06/01 16:17:01;;;;;;;;;;;25.70;57.70;;;;;;8336903;28;19915;-80
2023/06/01 16:21:01;;;;;;;;;;;25.80;58.50;;;;;;8348516;28;19921;-79
2023/06/01 16:25:02;;;;;;;;;;;25.70;60.40;;;;;;8353603;28;19916;-79
2023/06/01 16:29:03;;;;;;;;;;;25.80;58.60;;;;;;8329725;28;19935;-81
2023/06/01 16:33:03;;;;;;;;;;;25.50;61.50;;;;;;8328556;28;19909;-79
2023/06/01 16:37:04;;;;;;;;;;;25.00;60.70;;;;;;8328329;28;19913;-79
2023/06/01 16:41:05;;;;;;;;;;;24.90;62.90;;;;;;8326914;28;19917;-79
2023/06/01 16:45:05;;;;;;;;;;;24.80;63.90;;;;;;8328179;28;19917;-79
2023/06/01 16:49:06;;;;;;;;;;;24.80;64.40;;;;;;8335935;28;19917;-79
2023/06/01 16:53:06;;;;;;;;;;;24.80;65.00;;;;;;8334453;28;19994;-78
2023/06/01 16:57:10;;;;;;;;;;;24.80;64.90;;;;;;8334600;28;19948;-78
2023/06/01 17:01:10;;;;;;;;;;;24.80;65.90;;;;;;8345504;28;19920;-78
2023/06/01 17:05:11;;;;;;;;;;;24.70;64.40;;;;;;8340234;28;20393;-80
2023/06/01 17:09:12;;;;;;;;;;;24.60;69.20;;;;;;8344987;28;20267;-80
2023/06/01 17:13:13;;;;;;;;;;;24.60;68.00;;;;;;8359150;28;20430;-80
2023/06/01 17:17:14;;;;;;;;;;;24.40;64.20;;;;;;8343358;28;19924;-80
2023/06/01 17:21:14;;;;;;;;;;;24.20;67.70;;;;;;8338559;28;19965;-79
2023/06/01 17:25:15;;;;;;;;;;;24.10;75.60;;;;;;8326461;28;19920;-78
2023/06/01 17:29:15;;;;;;;;;;;23.90;71.40;;;;;;8332945;28;19956;-79
2023/06/01 17:33:16;;;;;;;;;;;23.70;73.10;;;;;;8346617;28;19913;-79
2023/06/01 17:37:19;;;;;;;;;;;23.30;75.50;;;;;;8347178;28;19921;-79
2023/06/01 17:41:21;;;;;;;;;;;23.10;81.90;;;;;;8337984;28;19925;-79
2023/06/01 17:45:21;;;;;;;;;;;23.10;77.70;;;;;;8339114;28;19932;-79
2023/06/01 17:49:22;;;;;;;;;;;22.70;81.80;;;;;;8333263;28;19944;-78
2023/06/01 17:53:22;;;;;;;;;;;22.50;87.60;;;;;;8312716;28;19999;-78
2023/06/01 17:57:23;;;;;;;;;;;22.10;91.40;;;;;;8313138;28;19918;-79
2023/06/01 18:01:24;;;;;;;;;;;21.80;92.20;;;;;;8324112;28;19956;-79
2023/06/01 18:05:25;;;;;;;;;;;21.50;92.80;;;;;;8322021;28;19921;-79
2023/06/01 18:09:26;;;;;;;;;;;21.20;93.20;;;;;;8329994;28;19940;-78
2023/06/01 18:13:26;;;;;;;;;;;20.90;93.70;;;;;;8336647;28;20344;-81
2023/06/01 18:17:27;;;;;;;;;;;20.70;93.60;;;;;;8353398;28;20571;-81
2023/06/01 18:21:27;;;;;;;;;;;20.60;95.00;;;;;;8344549;28;19928;-81
2023/06/01 18:25:27;;;;;;;;;;;20.80;92.70;;;;;;8343703;28;19960;-82
2023/06/01 18:29:28;;;;;;;;;;;20.50;92.80;;;;;;8319630;28;19909;-81
2023/06/01 18:33:28;;;;;;;;;;;19.90;94.40;;;;;;8329395;28;19940;-81
2023/06/01 18:37:29;;;;;;;;;;;19.80;96.40;;;;;;8337691;28;19999;-81
2023/06/01 18:41:29;;;;;;;;;;;19.80;96.70;;;;;;8335168;28;19922;-81
2023/06/01 18:45:31;;;;;;;;;;;19.50;97.10;;;;;;8341306;28;20000;-81
2023/06/01 18:49:32;;;;;;;;;;;19.70;95.50;;;;;;8323222;28;19912;-81
2023/06/01 18:53:32;;;;;;;;;;;19.20;96.50;;;;;;8326200;28;19917;-79
2023/06/01 18:57:33;;;;;;;;;;;19.00;97.00;;;;;;8350100;28;19917;-81
2023/06/01 19:01:33;;;;;;;;;;;18.80;98.70;;;;;;8335926;28;19921;-82
2023/06/01 19:05:34;;;;;;;;;;;18.70;98.10;;;;;;8328398;28;20007;-80
2023/06/01 19:09:37;;;;;;;;;;;18.60;98.70;;;;;;8323879;28;19912;-81
2023/06/01 19:13:39;;;;;;;;;;;18.40;99.00;;;;;;8324294;28;19953;-81
2023/06/01 19:17:40;;;;;;;;;;;18.30;99.90;;;;;;8352404;28;19920;-81
2023/06/01 19:21:40;;;;;;;;;;;18.20;99.90;;;;;;8349779;28;20381;-81
2023/06/01 19:25:41;;;;;;;;;;;18.10;99.90;;;;;;8332442;28;19924;-80
2023/06/01 19:29:42;;;;;;;;;;;17.90;99.90;;;;;;8337346;28;19913;-80
2023/06/01 19:33:42;;;;;;;;;;;17.70;99.90;;;;;;8336531;28;19975;-82
2023/06/01 19:37:46;;;;;;;;;;;17.70;99.90;;;;;;8330384;28;20316;-80
2023/06/01 19:41:47;;;;;;;;;;;17.40;99.90;;;;;;8329921;28;20617;-80
2023/06/01 19:45:47;;;;;;;;;;;17.10;99.90;;;;;;8326460;28;19916;-80
2023/06/01 19:49:47;;;;;;;;;;;16.90;99.90;;;;;;8325959;28;19928;-81
2023/06/01 19:53:48;;;;;;;;;;;17.00;99.90;;;;;;8333432;28;19966;-81
2023/06/01 19:57:49;;;;;;;;;;;17.00;99.90;;;;;;8323992;28;19917;-81
2023/06/01 20:01:50;;;;;;;;;;;16.70;99.90;;;;;;8329751;28;19921;-81
2023/06/01 20:05:51;;;;;;;;;;;16.60;99.90;;;;;;8330095;28;19917;-80
2023/06/01 20:09:52;;;;;;;;;;;16.50;99.90;;;;;;8332511;28;19917;-79
2023/06/01 20:13:52;;;;;;;;;;;16.40;99.90;;;;;;8332364;28;19909;-81
2023/06/01 20:17:52;;;;;;;;;;;16.20;99.90;;;;;;8337482;28;19917;-81
2023/06/01 20:21:54;;;;;;;;;;;16.00;99.90;;;;;;8337215;28;19921;-80
2023/06/01 20:25:57;;;;;;;;;;;15.80;99.90;;;;;;8341374;28;19913;-81
2023/06/01 20:29:57;;;;;;;;;;;15.70;99.90;;;;;;8334659;28;19920;-82
2023/06/01 20:33:58;;;;;;;;;;;15.70;99.90;;;;;;8338013;28;19917;-82
2023/06/01 20:37:58;;;;;;;;;;;15.40;99.90;;;;;;8343166;28;19924;-81
2023/06/01 20:41:59;;;;;;;;;;;15.40;99.90;;;;;;8346058;28;19925;-80
2023/06/01 20:46:01;;;;;;;;;;;15.30;99.90;;;;;;8337906;28;19917;-81
2023/06/01 20:50:01;;;;;;;;;;;15.30;99.90;;;;;;8370754;28;20403;-83
2023/06/01 20:54:03;;;;;;;;;;;15.40;99.90;;;;;;8350849;28;19959;-81
2023/06/01 20:58:04;;;;;;;;;;;15.10;99.90;;;;;;8354974;28;19917;-80
2023/06/01 21:02:05;;;;;;;;;;;14.80;99.90;;;;;;8338878;28;20484;-81
2023/06/01 21:06:07;;;;;;;;;;;14.70;99.90;;;;;;8363773;28;20297;-80
2023/06/01 21:10:07;;;;;;;;;;;15.10;99.90;;;;;;8362117;28;20404;-81
2023/06/01 21:14:08;;;;;;;;;;;14.70;99.90;;;;;;8352241;28;19944;-81
2023/06/01 21:18:09;;;;;;;;;;;14.60;99.90;;;;;;8360400;28;19923;-82
2023/06/01 21:22:09;;;;;;;;;;;14.50;99.90;;;;;;8365573;28;19917;-81
2023/06/01 21:26:10;;;;;;;;;;;14.20;99.90;;;;;;8363230;28;20019;-81
2023/06/01 21:30:10;;;;;;;;;;;14.10;99.90;;;;;;8353912;28;19935;-81
2023/06/01 21:34:11;;;;;;;;;;;13.90;99.90;;;;;;8356105;28;19917;-81
2023/06/01 21:38:13;;;;;;;;;;;13.90;99.90;;;;;;8350996;28;19913;-80
2023/06/01 21:42:13;;;;;;;;;;;13.90;99.90;;;;;;8363967;28;20620;-81
2023/06/01 21:46:14;;;;;;;;;;;13.60;99.90;;;;;;8347851;28;19928;-81
2023/06/01 21:50:15;;;;;;;;;;;13.70;99.90;;;;;;8362660;28;19958;-81
2023/06/01 21:58:25;;;;;;;;;;;13.60;99.90;;;;;;8380473;28;19971;-79
2023/06/01 22:02:26;;;;;;;;;;;13.50;99.90;;;;;;8378348;28;19920;-80
2023/06/01 22:06:27;;;;;;;;;;;13.60;99.90;;;;;;8367834;28;19920;-80
2023/06/01 22:10:27;;;;;;;;;;;13.70;99.90;;;;;;8346313;28;19927;-80
2023/06/01 22:14:31;;;;;;;;;;;13.30;99.90;;;;;;8338573;28;19921;-80
2023/06/01 22:18:31;;;;;;;;;;;13.50;99.90;;;;;;8342109;28;19923;-78
2023/06/01 22:22:32;;;;;;;;;;;13.60;99.90;;;;;;8364820;28;20385;-81
2023/06/01 22:26:33;;;;;;;;;;;13.60;99.90;;;;;;8356007;28;19908;-80
2023/06/01 22:30:33;;;;;;;;;;;13.50;99.90;;;;;;8351470;28;19995;-81
2023/06/01 22:34:33;;;;;;;;;;;13.40;99.90;;;;;;8344527;28;19916;-79
2023/06/01 22:38:34;;;;;;;;;;;13.20;99.90;;;;;;8362109;28;19913;-80
2023/06/01 22:42:34;;;;;;;;;;;12.90;99.90;;;;;;8361196;28;19919;-79
2023/06/01 22:46:35;;;;;;;;;;;12.70;99.90;;;;;;8350670;28;19908;-81
2023/06/01 22:50:36;;;;;;;;;;;12.60;99.90;;;;;;8367828;28;19912;-79
2023/06/01 22:54:36;;;;;;;;;;;12.50;99.90;;;;;;8361695;28;20393;-80
2023/06/01 22:58:37;;;;;;;;;;;12.20;99.90;;;;;;8366000;28;20003;-79
2023/06/01 23:02:37;;;;;;;;;;;12.20;99.90;;;;;;8361651;28;20390;-80
2023/06/01 23:06:38;;;;;;;;;;;12.20;99.90;;;;;;8343337;28;20296;-80
2023/06/01 23:10:48;;;;;;;;;;;12.10;99.90;;;;;;8360896;28;20446;-80
2023/06/01 23:14:49;;;;;;;;;;;11.90;99.90;;;;;;8340019;28;19920;-78
2023/06/01 23:18:53;;;;;;;;;;;11.80;99.90;;;;;;8371044;28;19918;-81
2023/06/01 23:22:54;;;;;;;;;;;11.60;99.90;;;;;;8364637;28;20363;-80
2023/06/01 23:26:55;;;;;;;;;;;11.40;99.90;;;;;;8340048;28;19909;-81
2023/06/01 23:30:55;;;;;;;;;;;11.50;99.90;;;;;;8361310;28;19919;-81
2023/06/01 23:34:56;;;;;;;;;;;11.60;99.90;;;;;;8358041;28;19913;-81
2023/06/01 23:38:59;;;;;;;;;;;11.50;99.90;;;;;;8346357;28;19920;-81